createdAt,value
2018-03-15T00:01:54.931Z,6.99
2018-03-15T00:04:23.061Z,6.95
2018-03-15T00:06:51.270Z,6.86
2018-03-15T00:09:19.485Z,6.75
2018-03-15T00:11:47.618Z,6.80
2018-03-15T00:14:16.012Z,6.72
2018-03-15T00:16:44.291Z,6.60
2018-03-15T00:19:12.468Z,6.53
2018-03-15T00:21:40.640Z,6.46
2018-03-15T00:24:08.774Z,6.46
2018-03-15T00:26:37.055Z,6.50
2018-03-15T00:29:05.194Z,6.49
2018-03-15T00:31:33.377Z,6.43
2018-03-15T00:34:01.509Z,6.43
2018-03-15T00:36:29.649Z,6.45
2018-03-15T00:38:57.866Z,6.31
2018-03-15T00:41:26.015Z,6.36
2018-03-15T00:43:54.135Z,6.34
2018-03-15T00:46:22.323Z,6.27
2018-03-15T00:48:50.478Z,6.24
2018-03-15T00:51:18.618Z,6.25
2018-03-15T00:53:46.764Z,6.16
2018-03-15T00:56:14.951Z,6.14
2018-03-15T00:58:43.100Z,6.09
2018-03-15T01:01:11.243Z,5.99
2018-03-15T01:03:39.412Z,5.96
2018-03-15T01:06:07.555Z,5.94
2018-03-15T01:08:35.741Z,5.94
2018-03-15T01:11:03.882Z,5.89
2018-03-15T01:13:32.023Z,5.89
2018-03-15T01:16:00.174Z,5.84
2018-03-15T01:18:28.343Z,5.82
2018-03-15T01:20:56.539Z,5.78
2018-03-15T01:23:24.703Z,5.71
2018-03-15T01:25:52.837Z,5.66
2018-03-15T01:28:20.978Z,5.60
2018-03-15T01:30:49.125Z,5.57
2018-03-15T01:33:17.289Z,5.54
2018-03-15T01:35:45.431Z,5.52
2018-03-15T01:38:13.726Z,5.52
2018-03-15T01:40:41.899Z,5.45
2018-03-15T01:43:10.044Z,5.45
2018-03-15T01:45:38.297Z,5.35
2018-03-15T01:48:06.525Z,5.33
2018-03-15T01:50:34.701Z,5.34
2018-03-15T01:53:02.833Z,5.35
2018-03-15T01:55:31.010Z,5.49
2018-03-15T01:57:59.153Z,5.76
2018-03-15T02:00:27.360Z,6.05
2018-03-15T02:02:55.519Z,6.30
2018-03-15T02:05:23.643Z,6.34
2018-03-15T02:07:51.793Z,6.48
2018-03-15T02:10:20.055Z,6.47
2018-03-15T02:12:48.221Z,6.40
2018-03-15T02:15:16.344Z,6.51
2018-03-15T02:17:44.464Z,6.55
2018-03-15T02:20:12.680Z,6.51
2018-03-15T02:22:40.796Z,6.55
2018-03-15T02:25:08.923Z,6.72
2018-03-15T02:27:37.067Z,6.67
2018-03-15T02:30:05.215Z,6.70
2018-03-15T02:32:33.346Z,6.66
2018-03-15T02:35:01.490Z,6.68
2018-03-15T02:37:29.698Z,6.82
2018-03-15T02:39:57.833Z,6.68
2018-03-15T02:42:25.971Z,6.81
2018-03-15T02:44:54.132Z,6.81
2018-03-15T02:47:22.394Z,6.72
2018-03-15T02:49:50.544Z,6.74
2018-03-15T02:52:18.744Z,6.82
2018-03-15T02:54:46.869Z,6.84
2018-03-15T02:57:14.986Z,6.81
2018-03-15T02:59:43.140Z,6.76
2018-03-15T03:02:11.272Z,6.78
2018-03-15T03:04:39.450Z,6.76
2018-03-15T03:07:07.630Z,6.74
2018-03-15T03:09:35.780Z,6.75
2018-03-15T03:12:03.918Z,6.73
2018-03-15T03:14:32.079Z,6.86
2018-03-15T03:17:00.204Z,6.91
2018-03-15T03:19:28.335Z,6.94
2018-03-15T03:21:56.623Z,6.80
2018-03-15T03:24:24.767Z,6.85
2018-03-15T03:26:52.905Z,6.70
2018-03-15T03:29:21.143Z,6.84
2018-03-15T03:31:49.396Z,6.90
2018-03-15T03:34:17.513Z,6.87
2018-03-15T03:36:45.696Z,6.82
2018-03-15T03:39:13.806Z,6.84
2018-03-15T03:41:41.939Z,6.85
2018-03-15T03:44:10.076Z,6.82
2018-03-15T03:46:38.214Z,6.86
2018-03-15T03:49:06.377Z,6.86
2018-03-15T03:51:34.505Z,6.84
2018-03-15T03:54:02.639Z,6.87
2018-03-15T03:56:33.804Z,6.83
2018-03-15T03:59:01.956Z,6.80
2018-03-15T04:01:30.128Z,6.80
2018-03-15T04:03:58.274Z,6.81
2018-03-15T04:06:26.420Z,6.87
2018-03-15T04:08:54.551Z,6.89
2018-03-15T04:11:22.737Z,6.81
2018-03-15T04:13:50.845Z,6.77
2018-03-15T04:16:18.989Z,6.83
2018-03-15T04:18:47.147Z,6.76
2018-03-15T04:21:15.284Z,6.73
2018-03-15T04:23:43.466Z,6.73
2018-03-15T04:26:11.600Z,6.68
2018-03-15T04:28:39.772Z,6.76
2018-03-15T04:31:08.014Z,6.74
2018-03-15T04:33:36.122Z,6.76
2018-03-15T04:36:04.260Z,6.65
2018-03-15T04:38:32.390Z,6.74
2018-03-15T04:41:00.521Z,6.77
2018-03-15T04:43:28.665Z,6.67
2018-03-15T04:45:56.832Z,6.76
2018-03-15T04:48:25.006Z,6.72
2018-03-15T04:50:53.708Z,6.74
2018-03-15T04:53:21.849Z,6.74
2018-03-15T04:55:50.140Z,6.74
2018-03-15T04:58:18.255Z,6.83
2018-03-15T05:00:46.407Z,6.67
2018-03-15T05:03:14.544Z,6.67
2018-03-15T05:05:42.779Z,6.82
2018-03-15T05:08:10.869Z,6.73
2018-03-15T05:10:39.000Z,6.63
2018-03-15T05:13:07.140Z,6.53
2018-03-15T05:15:35.271Z,6.56
2018-03-15T05:18:03.396Z,6.48
2018-03-15T05:20:31.543Z,6.46
2018-03-15T05:22:59.662Z,6.42
2018-03-15T05:25:27.792Z,6.30
2018-03-15T05:27:55.945Z,6.34
2018-03-15T05:30:24.073Z,6.29
2018-03-15T05:32:52.216Z,6.35
2018-03-15T05:35:20.371Z,6.32
2018-03-15T05:37:48.767Z,6.19
2018-03-15T05:40:16.915Z,6.10
2018-03-15T05:42:45.056Z,6.05
2018-03-15T05:45:13.201Z,6.15
2018-03-15T05:47:41.342Z,6.10
2018-03-15T05:50:09.496Z,6.21
2018-03-15T05:52:37.619Z,6.26
2018-03-15T05:55:05.756Z,7.12
2018-03-15T05:57:33.908Z,6.62
2018-03-15T06:00:02.041Z,6.51
2018-03-15T06:02:30.186Z,6.37
2018-03-15T06:04:58.322Z,6.20
2018-03-15T06:07:26.492Z,6.20
2018-03-15T06:09:54.736Z,6.24
2018-03-15T06:12:22.870Z,6.22
2018-03-15T06:14:51.010Z,6.24
2018-03-15T06:17:19.174Z,6.16
2018-03-15T06:19:47.315Z,5.94
2018-03-15T06:22:15.441Z,6.03
2018-03-15T06:24:43.567Z,6.22
2018-03-15T06:27:11.768Z,6.24
2018-03-15T06:29:40.296Z,6.23
2018-03-15T06:32:08.407Z,6.27
2018-03-15T06:34:36.564Z,6.41
2018-03-15T06:37:04.698Z,6.74
2018-03-15T06:39:32.841Z,6.59
2018-03-15T06:42:01.169Z,6.66
2018-03-15T06:44:29.298Z,6.51
2018-03-15T06:46:57.461Z,6.61
2018-03-15T06:49:25.591Z,7.07
2018-03-15T06:51:53.730Z,7.51
2018-03-15T06:54:21.856Z,7.47
2018-03-15T06:56:49.986Z,7.73
2018-03-15T06:59:18.139Z,7.82
2018-03-15T07:01:46.296Z,7.96
2018-03-15T07:04:14.434Z,8.42
2018-03-15T07:06:43.425Z,8.65
2018-03-15T07:09:11.580Z,9.10
2018-03-15T07:11:39.731Z,9.07
2018-03-15T07:14:07.863Z,8.72
2018-03-15T07:16:36.024Z,8.62
2018-03-15T07:19:04.157Z,8.58
2018-03-15T07:21:32.293Z,8.68
2018-03-15T07:24:00.441Z,9.00
2018-03-15T07:26:28.578Z,9.47
2018-03-15T07:28:56.699Z,9.97
2018-03-15T07:31:24.853Z,10.36
2018-03-15T07:33:53.000Z,10.59
2018-03-15T07:36:21.133Z,10.45
2018-03-15T07:38:49.304Z,10.39
2018-03-15T07:41:17.464Z,10.79
2018-03-15T07:43:45.607Z,10.64
2018-03-15T07:46:13.759Z,10.81
2018-03-15T07:48:41.886Z,10.69
2018-03-15T07:51:10.034Z,10.81
2018-03-15T07:53:38.164Z,11.08
2018-03-15T07:56:06.327Z,11.57
2018-03-15T07:58:34.487Z,11.31
2018-03-15T08:01:02.617Z,11.75
2018-03-15T08:03:30.768Z,11.79
2018-03-15T08:05:58.930Z,12.10
2018-03-15T08:08:27.082Z,12.09
2018-03-15T08:10:55.241Z,12.09
2018-03-15T08:13:23.454Z,12.49
2018-03-15T08:15:51.625Z,12.15
2018-03-15T08:18:19.757Z,11.96
2018-03-15T08:20:48.004Z,11.61
2018-03-15T08:23:16.126Z,11.23
2018-03-15T08:25:44.263Z,11.32
2018-03-15T08:28:12.383Z,11.52
2018-03-15T08:30:40.511Z,11.77
2018-03-15T08:33:08.641Z,11.95
2018-03-15T08:35:36.790Z,11.80
2018-03-15T08:38:04.912Z,11.82
2018-03-15T08:40:33.696Z,11.52
2018-03-15T08:43:01.816Z,11.53
2018-03-15T08:45:29.959Z,11.17
2018-03-15T08:47:58.093Z,11.64
2018-03-15T08:50:26.237Z,11.53
2018-03-15T08:52:54.376Z,11.44
2018-03-15T08:55:22.521Z,11.66
2018-03-15T08:57:50.646Z,11.65
2018-03-15T09:00:18.801Z,11.95
2018-03-15T09:02:46.950Z,12.18
2018-03-15T09:05:15.082Z,12.40
2018-03-15T09:07:43.253Z,12.23
2018-03-15T09:10:11.434Z,12.30
2018-03-15T09:12:39.626Z,12.54
2018-03-15T09:15:07.769Z,12.40
2018-03-15T09:17:35.929Z,12.41
2018-03-15T09:20:04.072Z,12.60
2018-03-15T09:22:32.192Z,12.39
2018-03-15T09:25:00.329Z,12.46
2018-03-15T09:27:28.479Z,12.55
2018-03-15T09:29:56.633Z,12.55
2018-03-15T09:32:24.764Z,12.65
2018-03-15T09:34:52.924Z,13.09
2018-03-15T09:37:21.030Z,13.19
2018-03-15T09:39:49.152Z,13.08
2018-03-15T09:42:17.289Z,12.98
2018-03-15T09:44:45.435Z,13.29
2018-03-15T09:47:13.583Z,13.05
2018-03-15T09:49:41.729Z,13.11
2018-03-15T09:52:09.876Z,13.50
2018-03-15T09:54:38.006Z,13.59
2018-03-15T09:57:06.137Z,13.51
2018-03-15T09:59:34.277Z,13.67
2018-03-15T10:02:02.430Z,13.34
2018-03-15T10:04:30.584Z,13.65
2018-03-15T10:06:58.712Z,13.80
2018-03-15T10:09:26.857Z,13.51
2018-03-15T10:11:54.978Z,13.77
2018-03-15T10:14:23.125Z,13.66
2018-03-15T10:16:51.315Z,13.71
2018-03-15T10:19:19.486Z,14.16
2018-03-15T10:21:47.648Z,14.40
2018-03-15T10:24:15.779Z,14.45
2018-03-15T10:26:43.890Z,14.45
2018-03-15T10:29:12.048Z,14.19
2018-03-15T10:31:40.193Z,13.89
2018-03-15T10:34:08.328Z,14.14
2018-03-15T10:36:36.450Z,14.39
2018-03-15T10:39:04.578Z,14.31
2018-03-15T10:41:32.721Z,14.31
2018-03-15T10:44:00.847Z,14.65
2018-03-15T10:46:28.995Z,14.62
2018-03-15T10:48:57.174Z,14.46
2018-03-15T10:51:25.324Z,14.59
2018-03-15T10:53:53.464Z,14.61
2018-03-15T10:56:21.624Z,14.72
2018-03-15T10:58:49.764Z,14.56
2018-03-15T11:01:22.876Z,14.39
2018-03-15T11:03:51.013Z,14.16
2018-03-15T11:06:24.727Z,14.44
2018-03-15T11:08:58.709Z,14.60
2018-03-15T11:11:26.820Z,14.58
2018-03-15T11:13:54.956Z,14.39
2018-03-15T11:16:23.116Z,14.31
2018-03-15T11:18:51.251Z,14.07
2018-03-15T11:21:19.393Z,14.15
2018-03-15T11:23:47.573Z,13.95
2018-03-15T11:26:15.637Z,14.04
2018-03-15T11:28:43.775Z,13.99
2018-03-15T11:31:11.923Z,14.09
2018-03-15T11:33:40.081Z,14.37
2018-03-15T11:36:08.226Z,14.15
2018-03-15T11:38:36.386Z,14.26
2018-03-15T11:41:04.506Z,14.34
2018-03-15T11:43:35.712Z,14.34
2018-03-15T11:46:03.842Z,14.21
2018-03-15T11:48:31.990Z,14.22
2018-03-15T11:51:00.205Z,14.41
2018-03-15T11:53:28.388Z,14.45
2018-03-15T11:55:56.551Z,14.44
2018-03-15T11:58:24.681Z,14.56
2018-03-15T12:00:53.417Z,14.62
2018-03-15T12:03:21.552Z,14.57
2018-03-15T12:05:49.692Z,14.80
2018-03-15T12:08:17.828Z,14.88
2018-03-15T12:10:45.956Z,14.88
2018-03-15T12:13:14.111Z,14.94
2018-03-15T12:15:46.080Z,14.93
2018-03-15T12:18:14.237Z,14.75
2018-03-15T12:20:42.367Z,14.74
2018-03-15T12:23:10.500Z,14.81
2018-03-15T12:25:38.638Z,14.64
2018-03-15T12:28:06.787Z,14.53
2018-03-15T12:30:34.900Z,14.70
2018-03-15T12:33:03.042Z,14.62
2018-03-15T12:35:31.162Z,14.76
2018-03-15T12:37:59.311Z,14.63
2018-03-15T12:40:27.437Z,14.88
2018-03-15T12:42:55.612Z,14.81
2018-03-15T12:45:23.747Z,15.08
2018-03-15T12:47:51.873Z,15.22
2018-03-15T12:50:19.991Z,14.97
2018-03-15T12:52:48.133Z,14.85
2018-03-15T12:55:16.271Z,15.03
2018-03-15T12:57:44.396Z,14.78
2018-03-15T13:00:12.562Z,14.93
2018-03-15T13:02:40.667Z,14.91
2018-03-15T13:05:08.829Z,14.97
2018-03-15T13:07:36.968Z,15.02
2018-03-15T13:10:05.099Z,15.24
2018-03-15T13:12:33.246Z,15.06
2018-03-15T13:15:01.378Z,15.04
2018-03-15T13:17:29.532Z,15.02
2018-03-15T13:19:57.665Z,14.75
2018-03-15T13:22:25.793Z,14.86
2018-03-15T13:24:53.956Z,14.99
2018-03-15T13:27:22.082Z,14.71
2018-03-15T13:29:50.217Z,14.79
2018-03-15T13:32:18.412Z,14.83
2018-03-15T13:34:46.470Z,14.68
2018-03-15T13:37:14.617Z,14.82
2018-03-15T13:39:42.750Z,14.87
2018-03-15T13:42:10.895Z,14.75
2018-03-15T13:44:39.029Z,14.74
2018-03-15T13:47:07.194Z,14.62
2018-03-15T13:49:35.323Z,14.66
2018-03-15T13:52:03.495Z,14.70
2018-03-15T13:54:31.606Z,14.53
2018-03-15T13:56:59.725Z,14.67
2018-03-15T13:59:27.871Z,14.69
2018-03-15T14:01:56.012Z,14.79
2018-03-15T14:04:24.173Z,14.76
2018-03-15T14:06:52.300Z,14.80
2018-03-15T14:09:20.434Z,14.64
2018-03-15T14:11:48.558Z,14.65
2018-03-15T14:14:16.681Z,14.73
2018-03-15T14:16:44.820Z,14.63
2018-03-15T14:19:13.066Z,14.28
2018-03-15T14:21:41.173Z,14.42
2018-03-15T14:24:09.326Z,14.45
2018-03-15T14:26:37.463Z,14.45
2018-03-15T14:29:05.614Z,14.34
2018-03-15T14:31:33.775Z,14.28
2018-03-15T14:34:01.909Z,14.18
2018-03-15T14:36:30.051Z,14.21
2018-03-15T14:38:58.203Z,14.15
2018-03-15T14:41:26.358Z,14.07
2018-03-15T14:43:54.508Z,14.09
2018-03-15T14:46:22.617Z,13.92
2018-03-15T14:48:50.782Z,14.00
2018-03-15T14:51:18.931Z,14.07
2018-03-15T14:53:47.034Z,14.08
2018-03-15T14:56:15.189Z,14.09
2018-03-15T14:58:43.305Z,14.05
2018-03-15T15:01:11.441Z,14.02
2018-03-15T15:03:39.575Z,13.97
2018-03-15T15:06:07.723Z,14.00
2018-03-15T15:08:35.846Z,14.09
2018-03-15T15:11:03.978Z,14.09
2018-03-15T15:13:32.129Z,14.12
2018-03-15T15:16:00.271Z,14.18
2018-03-15T15:18:28.414Z,14.08
2018-03-15T15:20:56.542Z,14.02
2018-03-15T15:23:24.677Z,14.00
2018-03-15T15:25:52.817Z,14.01
2018-03-15T15:28:20.968Z,14.13
2018-03-15T15:30:49.089Z,14.12
2018-03-15T15:33:17.225Z,14.09
2018-03-15T15:35:45.372Z,14.15
2018-03-15T15:38:13.474Z,14.19
2018-03-15T15:40:41.641Z,14.28
2018-03-15T15:43:09.758Z,14.33
2018-03-15T15:45:43.481Z,14.09
2018-03-15T15:48:11.815Z,14.09
2018-03-15T15:50:39.997Z,14.09
2018-03-15T15:53:08.145Z,14.09
2018-03-15T15:55:36.288Z,14.02
2018-03-15T15:58:04.427Z,14.05
2018-03-15T16:00:32.543Z,14.00
2018-03-15T16:03:00.682Z,13.93
2018-03-15T16:05:31.934Z,13.97
2018-03-15T16:08:00.076Z,13.99
2018-03-15T16:10:28.209Z,13.99
2018-03-15T16:12:56.330Z,14.00
2018-03-15T16:15:24.476Z,13.91
2018-03-15T16:17:52.608Z,13.91
2018-03-15T16:20:20.733Z,13.92
2018-03-15T16:22:48.893Z,13.87
2018-03-15T16:25:17.016Z,13.88
2018-03-15T16:27:45.146Z,13.78
2018-03-15T16:30:13.281Z,13.74
2018-03-15T16:32:41.425Z,13.71
2018-03-15T16:35:09.587Z,13.80
2018-03-15T16:37:37.710Z,13.77
2018-03-15T16:40:05.840Z,13.64
2018-03-15T16:42:33.977Z,13.66
2018-03-15T16:45:02.154Z,13.66
2018-03-15T16:47:30.295Z,13.59
2018-03-15T16:49:58.431Z,13.53
2018-03-15T16:52:26.564Z,13.41
2018-03-15T16:54:54.719Z,13.49
2018-03-15T16:57:22.890Z,13.43
2018-03-15T16:59:51.019Z,13.33
2018-03-15T17:02:19.173Z,13.28
2018-03-15T17:04:47.322Z,13.26
2018-03-15T17:07:15.456Z,13.23
2018-03-15T17:09:43.642Z,13.23
2018-03-15T17:12:11.815Z,13.25
2018-03-15T17:14:39.923Z,13.16
2018-03-15T17:17:08.051Z,13.11
2018-03-15T17:19:36.170Z,13.16
2018-03-15T17:22:04.313Z,13.09
2018-03-15T17:24:32.479Z,13.04
2018-03-15T17:27:04.356Z,13.01
2018-03-15T17:29:32.487Z,12.96
2018-03-15T17:32:00.642Z,12.96
2018-03-15T17:34:28.852Z,12.91
2018-03-15T17:36:56.999Z,12.91
2018-03-15T17:39:25.158Z,12.91
2018-03-15T17:41:53.302Z,12.93
2018-03-15T17:44:24.392Z,12.82
2018-03-15T17:46:52.535Z,12.81
2018-03-15T17:49:20.665Z,12.73
2018-03-15T17:51:50.723Z,12.78
2018-03-15T17:54:18.856Z,12.73
2018-03-15T17:56:46.993Z,12.70
2018-03-15T17:59:15.125Z,12.62
2018-03-15T18:01:43.252Z,12.60
2018-03-15T18:04:11.410Z,12.65
2018-03-15T18:06:39.628Z,12.63
2018-03-15T18:09:07.776Z,12.59
2018-03-15T18:11:35.887Z,12.56
2018-03-15T18:14:04.042Z,12.56
2018-03-15T18:16:32.178Z,12.52
2018-03-15T18:19:00.316Z,12.47
2018-03-15T18:21:28.459Z,12.45
2018-03-15T18:23:56.585Z,12.43
2018-03-15T18:26:24.719Z,12.46
2018-03-15T18:28:52.855Z,12.48
2018-03-15T18:31:20.994Z,12.40
2018-03-15T18:33:49.102Z,12.44
2018-03-15T18:36:17.257Z,12.40
2018-03-15T18:38:45.408Z,12.36
2018-03-15T18:41:13.552Z,12.39
2018-03-15T18:43:42.600Z,12.40
2018-03-15T18:46:10.719Z,12.29
2018-03-15T18:48:38.862Z,12.32
2018-03-15T18:51:07.002Z,12.26
2018-03-15T18:53:35.133Z,12.25
2018-03-15T18:56:03.264Z,12.23
2018-03-15T18:58:31.482Z,12.26
2018-03-15T19:00:59.615Z,12.17
2018-03-15T19:03:27.731Z,12.25
2018-03-15T19:05:55.913Z,12.17
2018-03-15T19:08:24.064Z,12.12
2018-03-15T19:10:52.205Z,12.14
2018-03-15T19:13:20.780Z,12.09
2018-03-15T19:15:48.911Z,12.04
2018-03-15T19:18:17.046Z,12.01
2018-03-15T19:20:45.151Z,12.00
2018-03-15T19:23:13.304Z,12.05
2018-03-15T19:25:41.524Z,12.10
2018-03-15T19:28:09.640Z,12.10
2018-03-15T19:30:37.782Z,11.90
2018-03-15T19:33:05.929Z,11.76
2018-03-15T19:35:34.103Z,11.64
2018-03-15T19:38:02.228Z,11.74
2018-03-15T19:40:30.356Z,11.42
2018-03-15T19:42:58.477Z,11.21
2018-03-15T19:45:26.617Z,11.14
2018-03-15T19:47:54.754Z,11.19
2018-03-15T19:50:22.896Z,11.08
2018-03-15T19:52:51.041Z,11.05
2018-03-15T19:55:19.165Z,10.86
2018-03-15T19:57:47.278Z,10.93
2018-03-15T20:00:15.432Z,10.79
2018-03-15T20:02:43.558Z,10.31
2018-03-15T20:05:11.717Z,10.41
2018-03-15T20:07:39.864Z,10.32
2018-03-15T20:10:08.016Z,10.11
2018-03-15T20:12:36.169Z,10.26
2018-03-15T20:15:04.318Z,10.35
2018-03-15T20:17:32.444Z,10.37
2018-03-15T20:20:00.585Z,10.12
2018-03-15T20:22:34.305Z,10.00
2018-03-15T20:25:02.451Z,10.24
2018-03-15T20:27:36.282Z,10.29
2018-03-15T20:30:04.519Z,10.04
2018-03-15T20:32:38.100Z,9.94
2018-03-15T20:35:06.221Z,9.96
2018-03-15T20:37:34.357Z,10.05
2018-03-15T20:40:07.995Z,10.02
2018-03-15T20:42:36.151Z,9.98
2018-03-15T20:45:04.295Z,9.99
2018-03-15T20:47:37.888Z,9.93
2018-03-15T20:50:06.014Z,9.69
2018-03-15T20:52:34.160Z,9.80
2018-03-15T20:55:02.347Z,9.74
2018-03-15T20:57:30.417Z,9.67
2018-03-15T20:59:58.584Z,9.58
2018-03-15T21:02:26.706Z,9.68
2018-03-15T21:04:54.917Z,9.67
2018-03-15T21:07:23.037Z,9.72
2018-03-15T21:09:51.172Z,9.64
2018-03-15T21:12:19.319Z,9.52
2018-03-15T21:14:47.460Z,9.66
2018-03-15T21:17:15.635Z,9.34
2018-03-15T21:19:47.085Z,9.50
2018-03-15T21:22:15.254Z,9.44
2018-03-15T21:24:43.399Z,9.39
2018-03-15T21:27:11.601Z,9.25
2018-03-15T21:29:39.686Z,9.33
2018-03-15T21:32:07.820Z,9.45
2018-03-15T21:34:35.954Z,9.25
2018-03-15T21:37:04.111Z,9.14
2018-03-15T21:39:32.258Z,9.38
2018-03-15T21:42:00.410Z,9.17
2018-03-15T21:44:28.679Z,9.24
2018-03-15T21:46:56.852Z,9.17
2018-03-15T21:49:24.993Z,9.04
2018-03-15T21:51:53.207Z,8.89
2018-03-15T21:54:21.372Z,8.92
2018-03-15T21:56:49.509Z,9.08
2018-03-15T21:59:17.663Z,9.16
2018-03-15T22:01:45.872Z,9.06
2018-03-15T22:04:14.043Z,9.11
2018-03-15T22:06:42.195Z,9.12
2018-03-15T22:09:10.320Z,9.13
2018-03-15T22:11:38.588Z,9.30
2018-03-15T22:14:06.697Z,9.37
2018-03-15T22:16:34.826Z,9.33
2018-03-15T22:19:02.989Z,9.05
2018-03-15T22:21:31.134Z,9.08
2018-03-15T22:23:59.286Z,9.23
2018-03-15T22:26:27.417Z,9.40
2018-03-15T22:28:55.578Z,9.43
2018-03-15T22:31:23.718Z,9.49
2018-03-15T22:33:51.922Z,9.22
2018-03-15T22:36:20.056Z,9.37
2018-03-15T22:38:48.180Z,9.37
2018-03-15T22:41:16.320Z,9.33
2018-03-15T22:43:44.482Z,9.32
2018-03-15T22:46:12.614Z,9.33
2018-03-15T22:48:40.760Z,9.28
2018-03-15T22:51:08.892Z,9.34
2018-03-15T22:53:37.010Z,9.23
2018-03-15T22:56:05.183Z,9.27
2018-03-15T22:58:33.295Z,9.15
2018-03-15T23:01:01.441Z,9.27
2018-03-15T23:03:29.602Z,9.26
2018-03-15T23:05:57.741Z,9.33
2018-03-15T23:08:25.873Z,9.35
2018-03-15T23:10:54.479Z,9.10
2018-03-15T23:13:22.620Z,9.16
2018-03-15T23:15:50.822Z,9.11
2018-03-15T23:18:18.960Z,9.21
2018-03-15T23:20:47.071Z,9.27
2018-03-15T23:23:15.216Z,9.39
2018-03-15T23:25:43.342Z,9.34
2018-03-15T23:28:11.479Z,9.28
2018-03-15T23:30:39.617Z,9.32
2018-03-15T23:33:07.746Z,9.35
2018-03-15T23:35:35.879Z,9.28
2018-03-15T23:38:04.025Z,9.31
2018-03-15T23:40:32.193Z,9.34
2018-03-15T23:43:00.336Z,9.20
2018-03-15T23:45:28.486Z,9.24
2018-03-15T23:47:56.635Z,9.29
2018-03-15T23:50:24.765Z,9.22
2018-03-15T23:52:52.896Z,9.19
2018-03-15T23:55:21.032Z,9.25
2018-03-15T23:57:49.207Z,9.23
